createdAt,value
2023-02-11T00:01:16.207Z,40.85
2023-02-11T00:03:42.902Z,41.25
2023-02-11T00:06:11.456Z,48.35
2023-02-11T00:08:39.056Z,45.85
2023-02-11T00:11:05.962Z,44.25
2023-02-11T00:13:32.671Z,47.17
2023-02-11T00:15:59.596Z,48.35
2023-02-11T00:18:26.385Z,49.25
2023-02-11T00:20:53.025Z,47.95
2023-02-11T00:23:19.624Z,45.42
2023-02-11T00:25:46.304Z,45.92
2023-02-11T00:28:13.154Z,48.00
2023-02-11T00:30:40.113Z,44.78
2023-02-11T00:33:06.918Z,51.95
2023-02-11T00:35:33.558Z,47.78
2023-02-11T00:38:00.236Z,43.28
2023-02-11T00:40:26.893Z,49.72
2023-02-11T00:42:53.512Z,51.50
2023-02-11T00:45:21.266Z,41.47
2023-02-11T00:47:48.282Z,46.03
2023-02-11T00:50:15.034Z,45.50
2023-02-11T00:52:41.681Z,50.05
2023-02-11T00:55:09.052Z,44.25
2023-02-11T00:57:35.811Z,43.45
2023-02-11T01:00:03.425Z,45.33
2023-02-11T01:02:30.054Z,42.00
2023-02-11T01:04:56.803Z,46.75
2023-02-11T01:07:23.415Z,46.88
2023-02-11T01:09:50.456Z,43.88
2023-02-11T01:12:17.129Z,48.58
2023-02-11T01:14:43.900Z,46.88
2023-02-11T01:17:10.844Z,45.33
2023-02-11T01:19:38.230Z,36.38
2023-02-11T01:22:05.694Z,39.17
2023-02-11T01:24:32.322Z,38.58
2023-02-11T01:26:59.004Z,40.90
2023-02-11T01:29:25.679Z,40.88
2023-02-11T01:31:52.483Z,45.88
2023-02-11T01:34:19.231Z,38.47
2023-02-11T01:36:45.897Z,42.63
2023-02-11T01:39:12.600Z,39.17
2023-02-11T01:41:39.307Z,41.25
2023-02-11T01:44:26.632Z,41.20
2023-02-11T01:46:53.838Z,43.15
2023-02-11T01:49:55.955Z,37.20
2023-02-11T01:52:32.036Z,37.97
2023-02-11T01:55:23.953Z,33.83
2023-02-11T01:57:58.381Z,41.80
2023-02-11T02:00:36.158Z,40.38
2023-02-11T02:03:14.662Z,39.50
2023-02-11T02:05:53.339Z,37.88
2023-02-11T02:08:30.969Z,41.28
2023-02-11T02:11:00.862Z,37.70
2023-02-11T02:13:30.443Z,38.00
2023-02-11T02:15:59.975Z,40.42
2023-02-11T02:18:32.643Z,40.28
2023-02-11T02:21:41.429Z,40.70
2023-02-11T02:24:36.220Z,39.05
2023-02-11T02:27:18.693Z,38.63
2023-02-11T02:30:22.014Z,37.92
2023-02-11T02:33:13.278Z,43.65
2023-02-11T02:36:12.825Z,42.88
2023-02-11T02:38:57.456Z,41.20
2023-02-11T02:41:29.649Z,38.35
2023-02-11T02:43:56.618Z,38.38
2023-02-11T02:46:26.367Z,38.10
2023-02-11T02:48:54.024Z,42.30
2023-02-11T02:51:52.605Z,37.22
2023-02-11T02:54:22.031Z,37.08
2023-02-11T02:57:10.170Z,32.67
2023-02-11T02:59:59.570Z,34.50
2023-02-11T03:02:57.045Z,37.75
2023-02-11T03:05:48.038Z,34.60
2023-02-11T03:08:45.130Z,36.38
2023-02-11T03:11:14.305Z,34.67
2023-02-11T03:13:42.655Z,35.85
2023-02-11T03:16:14.824Z,34.47
2023-02-11T03:18:46.573Z,34.60
2023-02-11T03:21:16.160Z,35.03
2023-02-11T03:23:56.427Z,39.17
2023-02-11T03:26:31.497Z,35.83
2023-02-11T03:29:00.975Z,34.72
2023-02-11T03:31:55.652Z,35.45
2023-02-11T03:34:33.392Z,37.00
2023-02-11T03:37:11.728Z,37.28
2023-02-11T03:39:42.888Z,36.05
2023-02-11T03:42:12.789Z,36.10
2023-02-11T03:44:49.339Z,35.67
2023-02-11T03:47:20.211Z,33.75
2023-02-11T03:49:49.537Z,35.08
2023-02-11T03:52:18.399Z,35.30
2023-02-11T03:54:48.182Z,34.20
2023-02-11T03:57:14.917Z,34.40
2023-02-11T03:59:57.147Z,31.95
2023-02-11T04:02:27.999Z,35.28
2023-02-11T04:04:54.961Z,33.22
2023-02-11T04:07:21.722Z,34.22
2023-02-11T04:09:48.752Z,32.83
2023-02-11T04:12:15.412Z,34.28
2023-02-11T04:14:42.029Z,35.25
2023-02-11T04:17:08.684Z,33.58
2023-02-11T04:19:35.606Z,34.90
2023-02-11T04:22:02.427Z,33.03
2023-02-11T04:24:29.108Z,37.55
2023-02-11T04:26:55.820Z,33.83
2023-02-11T04:29:22.521Z,32.67
2023-02-11T04:31:49.682Z,30.88
2023-02-11T04:34:16.337Z,32.20
2023-02-11T04:36:42.980Z,28.55
2023-02-11T04:39:09.627Z,33.78
2023-02-11T04:41:36.330Z,31.27
2023-02-11T04:44:03.002Z,32.13
2023-02-11T04:46:29.795Z,30.52
2023-02-11T04:48:57.334Z,30.85
2023-02-11T04:51:24.374Z,31.40
2023-02-11T04:53:51.038Z,32.20
2023-02-11T04:56:17.711Z,32.20
2023-02-11T04:58:44.364Z,30.00
2023-02-11T05:01:13.844Z,26.52
2023-02-11T05:03:41.493Z,29.65
2023-02-11T05:06:10.101Z,27.15
2023-02-11T05:08:36.809Z,28.65
2023-02-11T05:11:03.918Z,33.97
2023-02-11T05:13:31.117Z,28.15
2023-02-11T05:15:58.113Z,28.35
2023-02-11T05:18:24.905Z,28.30
2023-02-11T05:20:51.609Z,29.23
2023-02-11T05:23:18.235Z,26.33
2023-02-11T05:25:44.845Z,30.60
2023-02-11T05:28:11.540Z,29.63
2023-02-11T05:30:38.255Z,26.08
2023-02-11T05:33:05.014Z,26.98
2023-02-11T05:35:31.886Z,27.85
2023-02-11T05:37:58.510Z,28.90
2023-02-11T05:40:25.142Z,27.33
2023-02-11T05:42:51.752Z,30.73
2023-02-11T05:45:18.527Z,29.73
2023-02-11T05:47:45.174Z,30.73
2023-02-11T05:50:11.840Z,28.10
2023-02-11T05:52:38.598Z,29.48
2023-02-11T05:55:05.911Z,29.75
2023-02-11T05:57:32.647Z,30.10
2023-02-11T05:59:59.362Z,26.15
2023-02-11T06:02:26.150Z,33.65
2023-02-11T06:04:52.838Z,29.60
2023-02-11T06:07:19.757Z,27.98
2023-02-11T06:09:46.456Z,28.83
2023-02-11T06:12:13.142Z,26.90
2023-02-11T06:14:39.831Z,29.45
2023-02-11T06:17:06.513Z,34.35
2023-02-11T06:19:33.422Z,28.08
2023-02-11T06:22:00.304Z,26.05
2023-02-11T06:24:50.981Z,32.17
2023-02-11T06:27:13.595Z,28.45
2023-02-11T06:29:40.220Z,30.05
2023-02-11T06:32:08.661Z,30.63
2023-02-11T06:34:38.602Z,27.45
2023-02-11T06:37:05.622Z,30.48
2023-02-11T06:39:32.421Z,29.25
2023-02-11T06:41:59.194Z,30.83
2023-02-11T06:44:25.840Z,27.00
2023-02-11T06:46:52.531Z,31.88
2023-02-11T06:49:19.150Z,33.47
2023-02-11T06:51:45.824Z,30.05
2023-02-11T06:54:13.059Z,29.00
2023-02-11T06:56:41.312Z,24.85
2023-02-11T06:59:08.235Z,29.73
2023-02-11T07:01:34.916Z,26.83
2023-02-11T07:04:01.585Z,30.50
2023-02-11T07:06:28.443Z,27.48
2023-02-11T07:08:56.414Z,27.20
2023-02-11T07:11:26.314Z,27.63
2023-02-11T07:13:55.380Z,26.48
2023-02-11T07:16:22.652Z,27.20
2023-02-11T07:18:49.738Z,26.70
2023-02-11T07:21:19.397Z,26.70
2023-02-11T07:23:46.977Z,26.05
2023-02-11T07:26:16.576Z,28.85
2023-02-11T07:28:43.877Z,24.35
2023-02-11T07:31:13.663Z,27.83
2023-02-11T07:33:41.086Z,24.27
2023-02-11T07:36:10.072Z,28.98
2023-02-11T07:38:37.690Z,27.42
2023-02-11T07:41:10.168Z,27.98
2023-02-11T07:43:39.036Z,25.90
2023-02-11T07:46:08.396Z,22.73
2023-02-11T07:48:35.137Z,24.88
2023-02-11T07:51:17.910Z,23.98
2023-02-11T07:53:45.325Z,30.00
2023-02-11T07:56:13.783Z,23.45
2023-02-11T07:58:42.172Z,28.88
2023-02-11T08:01:15.169Z,25.35
2023-02-11T08:03:42.840Z,24.00
2023-02-11T08:06:15.607Z,24.85
2023-02-11T08:08:43.196Z,24.13
2023-02-11T08:11:12.654Z,28.23
2023-02-11T08:13:39.482Z,24.48
2023-02-11T08:16:07.081Z,26.70
2023-02-11T08:18:35.141Z,24.27
2023-02-11T08:21:09.327Z,23.65
2023-02-11T08:23:38.028Z,26.48
2023-02-11T08:26:09.771Z,28.25
2023-02-11T08:28:37.591Z,26.13
2023-02-11T08:31:09.310Z,23.10
2023-02-11T08:33:36.349Z,25.08
2023-02-11T08:36:12.281Z,24.80
2023-02-11T08:38:39.374Z,41.47
2023-02-11T08:41:06.778Z,27.20
2023-02-11T08:43:34.085Z,22.50
2023-02-11T08:46:02.335Z,21.48
2023-02-11T08:48:29.959Z,22.80
2023-02-11T08:50:56.762Z,23.50
2023-02-11T08:53:23.683Z,23.98
2023-02-11T08:55:55.117Z,21.92
2023-02-11T08:58:22.683Z,23.02
2023-02-11T09:00:50.245Z,22.58
2023-02-11T09:03:17.934Z,22.90
2023-02-11T09:05:47.682Z,21.95
2023-02-11T09:08:14.639Z,22.98
2023-02-11T09:10:41.594Z,23.00
2023-02-11T09:13:08.631Z,22.85
2023-02-11T09:15:35.659Z,21.02
2023-02-11T09:18:03.661Z,21.08
2023-02-11T09:20:30.497Z,21.27
2023-02-11T09:22:58.809Z,22.45
2023-02-11T09:25:26.070Z,20.13
2023-02-11T09:27:53.767Z,19.65
2023-02-11T09:30:21.001Z,23.83
2023-02-11T09:32:47.802Z,20.25
2023-02-11T09:35:14.471Z,20.95
2023-02-11T09:37:41.158Z,19.17
2023-02-11T09:40:08.498Z,19.17
2023-02-11T09:42:53.623Z,20.20
2023-02-11T09:45:24.251Z,18.20
2023-02-11T09:48:06.254Z,19.27
2023-02-11T09:50:36.279Z,19.85
2023-02-11T09:53:16.704Z,19.35
2023-02-11T09:55:46.935Z,18.20
2023-02-11T09:58:16.271Z,18.67
2023-02-11T10:00:52.904Z,19.67
2023-02-11T10:03:42.744Z,22.83
2023-02-11T10:06:21.764Z,19.25
2023-02-11T10:09:09.642Z,19.67
2023-02-11T10:12:09.178Z,17.00
2023-02-11T10:14:41.789Z,21.00
2023-02-11T10:17:37.680Z,19.87
2023-02-11T10:20:28.922Z,20.30
2023-02-11T10:22:59.200Z,21.40
2023-02-11T10:25:38.332Z,18.83
2023-02-11T10:28:19.999Z,20.25
2023-02-11T10:30:59.420Z,21.10
2023-02-11T10:33:36.779Z,21.15
2023-02-11T10:36:04.971Z,19.95
2023-02-11T10:38:33.753Z,17.73
2023-02-11T10:41:00.466Z,19.00
2023-02-11T10:43:30.739Z,22.63
2023-02-11T10:45:58.764Z,19.02
2023-02-11T10:48:40.775Z,19.90
2023-02-11T10:51:14.652Z,19.52
2023-02-11T10:53:41.518Z,18.92
2023-02-11T10:56:11.269Z,18.27
2023-02-11T10:58:45.598Z,21.70
2023-02-11T11:01:23.960Z,20.50
2023-02-11T11:03:52.806Z,20.42
2023-02-11T11:06:33.561Z,21.30
2023-02-11T11:09:01.054Z,21.85
2023-02-11T11:11:28.006Z,20.42
2023-02-11T11:13:59.798Z,18.98
2023-02-11T11:16:29.326Z,22.48
2023-02-11T11:19:08.106Z,22.30
2023-02-11T11:21:50.179Z,20.65
2023-02-11T11:24:21.784Z,21.55
2023-02-11T11:26:54.426Z,25.48
2023-02-11T11:29:28.655Z,18.67
2023-02-11T11:31:59.336Z,20.83
2023-02-11T11:34:38.140Z,23.20
2023-02-11T11:37:31.975Z,21.65
2023-02-11T11:40:23.878Z,22.85
2023-02-11T11:43:12.423Z,20.92
2023-02-11T11:45:39.284Z,19.70
2023-02-11T11:48:32.728Z,23.73
2023-02-11T11:51:05.753Z,20.13
2023-02-11T11:54:03.256Z,19.63
2023-02-11T11:56:33.742Z,21.02
2023-02-11T11:59:02.387Z,21.58
2023-02-11T12:01:47.227Z,22.83
2023-02-11T12:04:27.477Z,22.10
2023-02-11T12:07:00.560Z,21.38
2023-02-11T12:09:44.068Z,22.38
2023-02-11T12:12:32.600Z,21.23
2023-02-11T12:15:23.113Z,21.83
2023-02-11T12:17:59.941Z,22.20
2023-02-11T12:20:51.280Z,22.77
2023-02-11T12:23:33.170Z,22.67
2023-02-11T12:26:19.497Z,20.60
2023-02-11T12:29:04.757Z,20.00
2023-02-11T12:32:10.922Z,20.73
2023-02-11T12:35:12.951Z,22.40
2023-02-11T12:38:08.230Z,21.67
2023-02-11T12:40:46.682Z,21.13
2023-02-11T12:43:29.406Z,21.30
2023-02-11T12:46:17.607Z,22.30
2023-02-11T12:49:23.739Z,22.42
2023-02-11T12:52:00.851Z,20.95
2023-02-11T12:54:47.559Z,21.30
2023-02-11T12:57:21.465Z,21.70
2023-02-11T13:00:07.154Z,20.00
2023-02-11T13:03:06.682Z,19.05
2023-02-11T13:05:56.904Z,20.83
2023-02-11T13:08:33.431Z,21.13
2023-02-11T13:11:14.233Z,22.65
2023-02-11T13:13:49.653Z,22.85
2023-02-11T13:16:35.183Z,22.52
2023-02-11T13:19:14.157Z,23.95
2023-02-11T13:22:05.626Z,20.40
2023-02-11T13:24:51.078Z,23.33
2023-02-11T13:27:45.445Z,23.23
2023-02-11T13:30:30.476Z,20.42
2023-02-11T13:32:57.110Z,21.77
2023-02-11T13:35:36.619Z,24.73
2023-02-11T13:38:16.366Z,22.80
2023-02-11T13:40:43.864Z,24.67
2023-02-11T13:43:25.486Z,23.15
2023-02-11T13:45:57.390Z,24.85
2023-02-11T13:48:58.598Z,23.92
2023-02-11T13:51:40.354Z,22.55
2023-02-11T13:54:08.181Z,23.38
2023-02-11T13:56:40.586Z,22.67
2023-02-11T13:59:33.332Z,22.30
2023-02-11T14:02:18.603Z,20.48
2023-02-11T14:05:45.762Z,23.98
2023-02-11T14:08:31.301Z,22.17
2023-02-11T14:11:14.308Z,23.88
2023-02-11T14:13:47.152Z,21.37
2023-02-11T14:16:36.312Z,21.23
2023-02-11T14:19:06.044Z,25.00
2023-02-11T14:21:36.631Z,23.52
2023-02-11T14:24:04.826Z,20.60
2023-02-11T14:26:48.434Z,23.17
2023-02-11T14:29:28.754Z,23.63
2023-02-11T14:32:06.129Z,23.08
2023-02-11T14:34:54.506Z,23.63
2023-02-11T14:37:51.176Z,21.65
2023-02-11T14:40:36.567Z,23.38
2023-02-11T14:43:29.635Z,22.38
2023-02-11T14:45:58.346Z,22.10
2023-02-11T14:48:37.100Z,23.45
2023-02-11T14:51:07.092Z,25.80
2023-02-11T14:53:35.010Z,22.65
2023-02-11T14:56:01.654Z,21.70
2023-02-11T14:58:32.510Z,22.00
2023-02-11T15:01:22.852Z,25.02
2023-02-11T15:03:49.962Z,25.83
2023-02-11T15:06:32.188Z,24.02
2023-02-11T15:09:03.982Z,24.45
2023-02-11T15:11:40.476Z,21.75
2023-02-11T15:14:10.997Z,21.65
2023-02-11T15:16:43.971Z,21.67
2023-02-11T15:19:24.470Z,23.77
2023-02-11T15:21:52.841Z,22.35
2023-02-11T15:24:30.793Z,25.02
2023-02-11T15:27:03.139Z,24.17
2023-02-11T15:29:42.019Z,24.20
2023-02-11T15:32:23.010Z,20.58
2023-02-11T15:34:53.591Z,25.45
2023-02-11T15:37:26.568Z,22.85
2023-02-11T15:39:54.602Z,24.05
2023-02-11T15:42:34.066Z,25.70
2023-02-11T15:45:38.793Z,23.00
2023-02-11T15:48:14.768Z,25.20
2023-02-11T15:50:43.469Z,26.20
2023-02-11T15:53:37.959Z,23.17
2023-02-11T15:56:13.840Z,25.88
2023-02-11T15:58:42.465Z,23.58
2023-02-11T16:01:10.416Z,24.02
2023-02-11T16:03:37.418Z,26.02
2023-02-11T16:06:25.105Z,25.50
2023-02-11T16:09:12.637Z,25.42
2023-02-11T16:11:48.224Z,27.13
2023-02-11T16:14:34.495Z,30.13
2023-02-11T16:17:06.319Z,24.45
2023-02-11T16:19:34.700Z,25.40
2023-02-11T16:22:08.389Z,26.15
2023-02-11T16:24:37.168Z,23.65
2023-02-11T16:27:07.651Z,26.67
2023-02-11T16:29:37.015Z,23.20
2023-02-11T16:32:16.383Z,26.40
2023-02-11T16:34:43.522Z,26.10
2023-02-11T16:37:10.550Z,25.05
2023-02-11T16:39:37.319Z,21.02
2023-02-11T16:42:07.622Z,23.83
2023-02-11T16:44:34.850Z,24.90
2023-02-11T16:47:03.286Z,23.77
2023-02-11T16:49:34.167Z,24.95
2023-02-11T16:52:05.236Z,21.25
2023-02-11T16:54:32.013Z,23.40
2023-02-11T16:56:59.109Z,24.58
2023-02-11T16:59:25.790Z,23.73
2023-02-11T17:01:53.642Z,24.05
2023-02-11T17:04:24.445Z,28.17
2023-02-11T17:06:51.397Z,22.48
2023-02-11T17:09:30.130Z,24.77
2023-02-11T17:11:57.382Z,25.20
2023-02-11T17:14:24.128Z,23.45
2023-02-11T17:16:51.023Z,25.15
2023-02-11T17:19:20.883Z,20.77
2023-02-11T17:21:50.592Z,22.50
2023-02-11T17:24:17.756Z,23.75
2023-02-11T17:26:45.323Z,21.30
2023-02-11T17:29:17.299Z,21.00
2023-02-11T17:31:44.424Z,23.88
2023-02-11T17:34:11.599Z,24.55
2023-02-11T17:36:38.445Z,22.05
2023-02-11T17:39:08.088Z,23.70
2023-02-11T17:41:37.012Z,28.45
2023-02-11T17:44:04.072Z,23.85
2023-02-11T17:46:32.086Z,24.38
2023-02-11T17:48:59.576Z,24.88
2023-02-11T17:51:32.561Z,28.98
2023-02-11T17:54:01.724Z,28.27
2023-02-11T17:56:30.791Z,25.50
2023-02-11T17:58:57.531Z,31.80
2023-02-11T18:01:27.996Z,35.60
2023-02-11T18:03:54.811Z,32.78
2023-02-11T18:06:21.945Z,35.60
2023-02-11T18:08:49.094Z,34.10
2023-02-11T18:11:16.622Z,30.27
2023-02-11T18:13:45.210Z,28.35
2023-02-11T18:16:15.643Z,25.80
2023-02-11T18:18:43.682Z,22.40
2023-02-11T18:21:17.989Z,24.63
2023-02-11T18:23:45.319Z,20.33
2023-02-11T18:26:14.523Z,21.67
2023-02-11T18:28:44.518Z,20.95
2023-02-11T18:31:13.000Z,21.38
2023-02-11T18:33:40.971Z,20.08
2023-02-11T18:36:10.053Z,21.75
2023-02-11T18:38:37.149Z,24.48
2023-02-11T18:41:04.465Z,23.27
2023-02-11T18:43:33.561Z,22.70
2023-02-11T18:46:01.697Z,22.95
2023-02-11T18:48:28.488Z,23.08
2023-02-11T18:50:55.992Z,18.98
2023-02-11T18:53:23.293Z,19.92
2023-02-11T18:55:50.467Z,19.95
2023-02-11T18:58:17.834Z,20.90
2023-02-11T19:00:46.722Z,22.73
2023-02-11T19:03:13.980Z,22.45
2023-02-11T19:05:47.708Z,21.70
2023-02-11T19:08:14.959Z,22.38
2023-02-11T19:10:46.433Z,20.60
2023-02-11T19:13:14.259Z,21.27
2023-02-11T19:15:42.698Z,22.33
2023-02-11T19:18:10.553Z,21.75
2023-02-11T19:20:42.197Z,24.17
2023-02-11T19:23:09.374Z,26.50
2023-02-11T19:25:36.233Z,23.60
2023-02-11T19:28:03.486Z,27.05
2023-02-11T19:30:30.547Z,22.40
2023-02-11T19:32:57.715Z,22.27
2023-02-11T19:35:25.639Z,21.63
2023-02-11T19:37:52.363Z,21.77
2023-02-11T19:40:21.168Z,27.38
2023-02-11T19:42:47.876Z,29.65
2023-02-11T19:45:14.562Z,28.38
2023-02-11T19:47:41.328Z,28.15
2023-02-11T19:50:09.185Z,25.90
2023-02-11T19:52:38.486Z,25.33
2023-02-11T19:55:05.511Z,25.70
2023-02-11T19:57:32.138Z,24.75
2023-02-11T19:59:58.808Z,23.05
2023-02-11T20:02:25.581Z,21.85
2023-02-11T20:04:52.272Z,24.90
2023-02-11T20:07:18.988Z,21.83
2023-02-11T20:09:45.611Z,23.75
2023-02-11T20:12:12.398Z,23.05
2023-02-11T20:14:39.292Z,26.00
2023-02-11T20:17:05.967Z,23.90
2023-02-11T20:19:32.768Z,24.70
2023-02-11T20:21:59.577Z,25.50
2023-02-11T20:24:26.352Z,24.25
2023-02-11T20:26:56.520Z,27.70
2023-02-11T20:29:24.114Z,27.13
2023-02-11T20:31:50.981Z,23.52
2023-02-11T20:34:18.040Z,26.92
2023-02-11T20:36:51.986Z,26.10
2023-02-11T20:39:21.699Z,25.40
2023-02-11T20:41:49.697Z,26.15
2023-02-11T20:44:16.697Z,25.58
2023-02-11T20:46:48.419Z,22.55
2023-02-11T20:49:18.724Z,22.48
2023-02-11T20:51:45.881Z,27.67
2023-02-11T20:54:14.834Z,25.20
2023-02-11T20:56:41.696Z,31.02
2023-02-11T20:59:09.097Z,26.17
2023-02-11T21:01:40.610Z,23.27
2023-02-11T21:04:11.914Z,23.20
2023-02-11T21:06:41.667Z,24.40
2023-02-11T21:09:10.866Z,25.83
2023-02-11T21:11:37.621Z,25.02
2023-02-11T21:14:04.840Z,27.10
2023-02-11T21:16:32.087Z,28.10
2023-02-11T21:18:58.852Z,24.05
2023-02-11T21:21:25.497Z,26.25
2023-02-11T21:23:52.171Z,24.20
2023-02-11T21:26:18.938Z,26.10
2023-02-11T21:28:45.567Z,24.25
2023-02-11T21:31:20.873Z,23.15
2023-02-11T21:33:48.711Z,21.27
2023-02-11T21:36:15.375Z,21.48
2023-02-11T21:38:42.230Z,26.73
2023-02-11T21:41:08.992Z,23.27
2023-02-11T21:43:35.687Z,20.35
2023-02-11T21:46:08.101Z,23.15
2023-02-11T21:48:34.994Z,23.27
2023-02-11T21:51:05.658Z,22.08
2023-02-11T21:53:32.567Z,21.65
2023-02-11T21:56:18.426Z,20.33
2023-02-11T21:58:46.083Z,19.10
2023-02-11T22:01:14.159Z,19.15
2023-02-11T22:03:41.178Z,20.00
2023-02-11T22:06:10.416Z,20.45
2023-02-11T22:08:37.848Z,21.77
2023-02-11T22:11:06.266Z,20.48
2023-02-11T22:13:33.681Z,24.88
2023-02-11T22:16:02.236Z,21.08
2023-02-11T22:18:32.462Z,19.50
2023-02-11T22:21:01.159Z,22.52
2023-02-11T22:23:28.757Z,20.80
2023-02-11T22:25:56.238Z,21.13
2023-02-11T22:28:23.418Z,24.25
2023-02-11T22:30:57.566Z,21.45
2023-02-11T22:33:25.595Z,22.45
2023-02-11T22:36:03.755Z,22.17
2023-02-11T22:38:31.195Z,25.05
2023-02-11T22:40:58.991Z,21.83
2023-02-11T22:43:25.672Z,22.42
2023-02-11T22:45:52.552Z,25.33
2023-02-11T22:48:22.090Z,20.75
2023-02-11T22:50:49.670Z,21.48
2023-02-11T22:53:16.312Z,20.83
2023-02-11T22:55:42.956Z,20.83
2023-02-11T22:58:09.862Z,22.88
2023-02-11T23:00:39.307Z,22.95
2023-02-11T23:03:07.436Z,20.08
2023-02-11T23:05:39.306Z,21.15
2023-02-11T23:08:07.749Z,19.17
2023-02-11T23:10:36.359Z,22.90
2023-02-11T23:13:04.441Z,20.00
2023-02-11T23:15:31.695Z,25.83
2023-02-11T23:17:58.446Z,22.92
2023-02-11T23:20:25.428Z,20.30
2023-02-11T23:22:52.090Z,20.65
2023-02-11T23:25:18.747Z,23.63
2023-02-11T23:27:45.369Z,21.70
2023-02-11T23:30:12.546Z,21.60
2023-02-11T23:32:39.575Z,19.63
2023-02-11T23:35:06.400Z,21.13
2023-02-11T23:37:33.105Z,19.95
2023-02-11T23:39:59.747Z,19.60
2023-02-11T23:42:26.427Z,22.65
2023-02-11T23:44:53.031Z,21.85
2023-02-11T23:47:19.802Z,21.67
2023-02-11T23:49:46.417Z,24.17
2023-02-11T23:52:13.575Z,17.30
2023-02-11T23:54:40.286Z,20.77
2023-02-11T23:57:06.910Z,21.10
2023-02-11T23:59:33.510Z,18.95
